createdAt,value
2023-05-19T00:00:39.236Z,6.87
2023-05-19T00:03:06.450Z,6.27
2023-05-19T00:05:34.552Z,6.48
2023-05-19T00:08:03.105Z,6.26
2023-05-19T00:10:30.588Z,6.74
2023-05-19T00:12:58.700Z,6.59
2023-05-19T00:15:25.796Z,6.35
2023-05-19T00:17:52.676Z,6.86
2023-05-19T00:20:19.459Z,7.50
2023-05-19T00:22:46.369Z,8.33
2023-05-19T00:25:13.141Z,8.24
2023-05-19T00:27:39.890Z,8.14
2023-05-19T00:30:07.507Z,9.10
2023-05-19T00:32:35.284Z,9.80
2023-05-19T00:35:02.251Z,9.81
2023-05-19T00:37:28.968Z,9.23
2023-05-19T00:39:55.627Z,9.17
2023-05-19T00:42:22.215Z,9.37
2023-05-19T00:44:48.933Z,7.55
2023-05-19T00:47:15.816Z,7.93
2023-05-19T00:49:42.518Z,8.08
2023-05-19T00:52:09.310Z,7.57
2023-05-19T00:54:36.566Z,7.37
2023-05-19T00:57:03.513Z,6.93
2023-05-19T00:59:30.338Z,6.98
2023-05-19T01:01:57.639Z,6.96
2023-05-19T01:04:25.739Z,6.71
2023-05-19T01:06:52.563Z,6.63
2023-05-19T01:09:20.611Z,7.02
2023-05-19T01:11:47.386Z,6.64
2023-05-19T01:14:15.497Z,6.75
2023-05-19T01:17:06.916Z,6.33
2023-05-19T01:19:39.693Z,6.38
2023-05-19T01:22:32.241Z,6.68
2023-05-19T01:25:20.019Z,6.46
2023-05-19T01:28:15.095Z,6.82
2023-05-19T01:30:44.233Z,6.58
2023-05-19T01:33:14.033Z,6.32
2023-05-19T01:35:42.901Z,6.62
2023-05-19T01:38:12.586Z,6.56
2023-05-19T01:40:41.270Z,6.91
2023-05-19T01:43:12.177Z,6.71
2023-05-19T01:45:40.586Z,6.70
2023-05-19T01:48:10.822Z,6.70
2023-05-19T01:50:39.129Z,6.66
2023-05-19T01:53:06.240Z,6.44
2023-05-19T01:55:33.953Z,6.74
2023-05-19T01:58:15.598Z,6.77
2023-05-19T02:00:53.060Z,6.53
2023-05-19T02:03:44.766Z,6.18
2023-05-19T02:06:20.746Z,6.13
2023-05-19T02:09:12.163Z,5.92
2023-05-19T02:11:42.728Z,5.81
2023-05-19T02:14:20.159Z,5.64
2023-05-19T02:16:48.620Z,6.00
2023-05-19T02:19:33.740Z,6.18
2023-05-19T02:22:00.650Z,5.84
2023-05-19T02:24:27.458Z,6.11
2023-05-19T02:26:54.834Z,6.20
2023-05-19T02:29:21.703Z,6.23
2023-05-19T02:31:49.002Z,5.86
2023-05-19T02:34:18.646Z,6.10
2023-05-19T02:36:45.410Z,6.28
2023-05-19T02:39:12.997Z,6.14
2023-05-19T02:41:39.878Z,6.22
2023-05-19T02:44:06.653Z,6.23
2023-05-19T02:46:34.176Z,6.15
2023-05-19T02:49:00.980Z,6.13
2023-05-19T02:51:27.941Z,5.96
2023-05-19T02:53:54.872Z,6.05
2023-05-19T02:56:21.807Z,6.04
2023-05-19T02:58:48.803Z,5.91
2023-05-19T03:01:15.589Z,6.15
2023-05-19T03:03:42.293Z,6.05
2023-05-19T03:06:09.076Z,6.19
2023-05-19T03:08:36.360Z,5.87
2023-05-19T03:11:03.784Z,6.22
2023-05-19T03:13:30.458Z,5.95
2023-05-19T03:15:57.239Z,6.19
2023-05-19T03:18:24.182Z,5.85
2023-05-19T03:20:51.088Z,5.99
2023-05-19T03:23:17.680Z,6.42
2023-05-19T03:25:46.572Z,6.03
2023-05-19T03:28:13.425Z,6.24
2023-05-19T03:30:40.261Z,6.29
2023-05-19T03:33:07.002Z,6.17
2023-05-19T03:35:33.757Z,6.05
2023-05-19T03:38:00.588Z,6.13
2023-05-19T03:40:27.683Z,6.08
2023-05-19T03:42:54.271Z,6.06
2023-05-19T03:45:20.902Z,6.05
2023-05-19T03:47:47.701Z,6.20
2023-05-19T03:50:14.409Z,6.36
2023-05-19T03:52:41.227Z,6.05
2023-05-19T03:55:08.992Z,6.16
2023-05-19T03:57:35.824Z,6.45
2023-05-19T04:00:03.924Z,6.34
2023-05-19T04:02:31.077Z,6.06
2023-05-19T04:04:57.972Z,6.00
2023-05-19T04:07:24.823Z,6.58
2023-05-19T04:09:51.574Z,6.51
2023-05-19T04:12:18.638Z,6.36
2023-05-19T04:14:45.501Z,6.40
2023-05-19T04:17:12.501Z,6.18
2023-05-19T04:19:39.323Z,6.67
2023-05-19T04:22:06.222Z,6.30
2023-05-19T04:24:33.174Z,6.49
2023-05-19T04:27:00.220Z,6.24
2023-05-19T04:29:27.067Z,6.64
2023-05-19T04:31:53.906Z,6.43
2023-05-19T04:34:20.732Z,6.62
2023-05-19T04:36:47.709Z,6.11
2023-05-19T04:39:14.668Z,6.55
2023-05-19T04:41:41.292Z,6.23
2023-05-19T04:44:07.895Z,6.15
2023-05-19T04:46:34.736Z,6.28
2023-05-19T04:49:01.507Z,6.66
2023-05-19T04:51:30.438Z,6.46
2023-05-19T04:53:57.854Z,6.44
2023-05-19T04:56:24.556Z,6.61
2023-05-19T04:58:51.170Z,6.52
2023-05-19T05:01:18.015Z,6.78
2023-05-19T05:03:44.858Z,6.84
2023-05-19T05:06:11.711Z,6.79
2023-05-19T05:08:38.535Z,6.66
2023-05-19T05:11:05.607Z,6.77
2023-05-19T05:13:32.597Z,6.74
2023-05-19T05:15:59.796Z,7.15
2023-05-19T05:18:26.947Z,6.85
2023-05-19T05:20:55.238Z,6.72
2023-05-19T05:23:22.318Z,6.58
2023-05-19T05:25:49.568Z,6.73
2023-05-19T05:28:16.487Z,6.64
2023-05-19T05:30:43.221Z,6.75
2023-05-19T05:33:10.296Z,6.46
2023-05-19T05:35:37.341Z,6.99
2023-05-19T05:38:04.783Z,6.97
2023-05-19T05:40:31.637Z,6.94
2023-05-19T05:42:58.536Z,7.39
2023-05-19T05:45:27.762Z,6.80
2023-05-19T05:47:54.859Z,6.96
2023-05-19T05:50:21.857Z,7.37
2023-05-19T05:52:50.362Z,7.72
2023-05-19T05:55:17.508Z,6.98
2023-05-19T05:57:44.363Z,6.97
2023-05-19T06:00:11.670Z,6.66
2023-05-19T06:02:38.809Z,6.90
2023-05-19T06:05:05.869Z,6.91
2023-05-19T06:07:32.753Z,6.90
2023-05-19T06:09:59.317Z,6.78
2023-05-19T06:12:25.925Z,6.53
2023-05-19T06:14:52.662Z,6.61
2023-05-19T06:17:19.472Z,6.70
2023-05-19T06:19:46.308Z,6.55
2023-05-19T06:22:13.118Z,7.17
2023-05-19T06:24:40.006Z,7.41
2023-05-19T06:27:06.942Z,7.34
2023-05-19T06:29:33.787Z,7.43
2023-05-19T06:32:00.683Z,6.91
2023-05-19T06:34:27.762Z,7.24
2023-05-19T06:36:54.743Z,7.09
2023-05-19T06:39:21.560Z,7.27
2023-05-19T06:41:48.317Z,7.26
2023-05-19T06:44:15.189Z,7.52
2023-05-19T06:46:42.187Z,7.22
2023-05-19T06:49:08.943Z,7.44
2023-05-19T06:51:35.789Z,7.43
2023-05-19T06:54:02.960Z,7.07
2023-05-19T06:56:29.995Z,7.21
2023-05-19T06:58:56.889Z,7.02
2023-05-19T07:01:23.883Z,7.00
2023-05-19T07:03:50.697Z,7.58
2023-05-19T07:06:17.530Z,7.77
2023-05-19T07:08:44.428Z,7.49
2023-05-19T07:11:11.841Z,7.49
2023-05-19T07:13:38.551Z,7.75
2023-05-19T07:16:05.409Z,7.82
2023-05-19T07:18:32.064Z,7.85
2023-05-19T07:20:58.685Z,7.99
2023-05-19T07:23:25.236Z,7.66
2023-05-19T07:25:55.759Z,8.35
2023-05-19T07:28:22.531Z,7.61
2023-05-19T07:30:49.206Z,7.51
2023-05-19T07:33:15.884Z,7.87
2023-05-19T07:35:42.701Z,7.91
2023-05-19T07:38:09.233Z,8.01
2023-05-19T07:40:35.897Z,8.30
2023-05-19T07:43:02.453Z,7.62
2023-05-19T07:45:29.162Z,7.77
2023-05-19T07:47:55.772Z,8.17
2023-05-19T07:50:22.350Z,8.02
2023-05-19T07:52:48.941Z,8.11
2023-05-19T07:55:16.505Z,7.87
2023-05-19T07:57:43.095Z,7.61
2023-05-19T08:00:10.174Z,7.78
2023-05-19T08:02:36.906Z,7.83
2023-05-19T08:05:03.652Z,8.32
2023-05-19T08:07:30.193Z,8.10
2023-05-19T08:09:56.925Z,8.30
2023-05-19T08:12:23.651Z,8.21
2023-05-19T08:14:50.285Z,7.77
2023-05-19T08:17:16.828Z,8.60
2023-05-19T08:19:43.358Z,8.54
2023-05-19T08:22:09.891Z,8.42
2023-05-19T08:24:36.571Z,8.54
2023-05-19T08:27:03.324Z,8.34
2023-05-19T08:29:30.017Z,8.72
2023-05-19T08:31:56.708Z,9.13
2023-05-19T08:34:23.290Z,8.30
2023-05-19T08:36:49.862Z,8.49
2023-05-19T08:39:16.682Z,9.43
2023-05-19T08:41:43.442Z,8.46
2023-05-19T08:44:10.170Z,8.98
2023-05-19T08:46:37.150Z,8.64
2023-05-19T08:49:11.663Z,8.55
2023-05-19T08:52:00.326Z,8.25
2023-05-19T08:54:37.466Z,8.63
2023-05-19T08:57:06.680Z,8.98
2023-05-19T08:59:34.536Z,9.32
2023-05-19T09:02:02.201Z,9.36
2023-05-19T09:04:30.338Z,8.82
2023-05-19T09:06:57.144Z,9.03
2023-05-19T09:09:23.809Z,10.63
2023-05-19T09:11:50.544Z,8.73
2023-05-19T09:14:17.118Z,8.83
2023-05-19T09:16:45.519Z,8.77
2023-05-19T09:19:14.159Z,9.27
2023-05-19T09:21:40.771Z,9.51
2023-05-19T09:24:09.502Z,10.08
2023-05-19T09:26:42.346Z,9.83
2023-05-19T09:29:18.571Z,9.71
2023-05-19T09:31:52.559Z,9.20
2023-05-19T09:34:20.416Z,9.02
2023-05-19T09:36:48.566Z,11.05
2023-05-19T09:39:22.708Z,10.13
2023-05-19T09:41:56.515Z,9.23
2023-05-19T09:44:27.849Z,9.64
2023-05-19T09:46:55.593Z,9.95
2023-05-19T09:49:24.658Z,9.72
2023-05-19T09:51:54.723Z,9.28
2023-05-19T09:54:22.926Z,9.37
2023-05-19T09:56:59.648Z,9.40
2023-05-19T09:59:29.022Z,9.28
2023-05-19T10:01:59.929Z,9.41
2023-05-19T10:04:28.532Z,9.23
2023-05-19T10:06:57.440Z,9.03
2023-05-19T10:09:26.279Z,9.29
2023-05-19T10:11:54.784Z,9.09
2023-05-19T10:14:27.887Z,9.00
2023-05-19T10:16:56.760Z,8.99
2023-05-19T10:19:30.084Z,8.84
2023-05-19T10:21:56.772Z,8.63
2023-05-19T10:24:23.314Z,8.88
2023-05-19T10:26:56.620Z,9.14
2023-05-19T10:29:28.972Z,9.34
2023-05-19T10:32:08.103Z,9.38
2023-05-19T10:35:08.588Z,9.80
2023-05-19T10:37:59.037Z,9.21
2023-05-19T10:40:33.347Z,9.42
2023-05-19T10:43:20.877Z,9.27
2023-05-19T10:45:58.344Z,9.59
2023-05-19T10:48:25.093Z,8.99
2023-05-19T10:50:56.455Z,9.16
2023-05-19T10:53:31.722Z,9.35
2023-05-19T10:56:00.932Z,9.16
2023-05-19T10:58:43.611Z,9.67
2023-05-19T11:01:15.672Z,9.27
2023-05-19T11:03:46.698Z,8.92
2023-05-19T11:06:25.481Z,9.23
2023-05-19T11:09:07.293Z,9.43
2023-05-19T11:11:46.189Z,9.36
2023-05-19T11:14:14.192Z,9.28
2023-05-19T11:16:41.172Z,9.84
2023-05-19T11:19:07.968Z,9.62
2023-05-19T11:21:51.762Z,9.89
2023-05-19T11:24:38.347Z,9.52
2023-05-19T11:27:28.030Z,9.24
2023-05-19T11:30:18.018Z,9.20
2023-05-19T11:32:48.046Z,8.85
2023-05-19T11:35:17.972Z,8.58
2023-05-19T11:37:45.469Z,8.47
2023-05-19T11:40:13.483Z,8.37
2023-05-19T11:42:40.110Z,8.96
2023-05-19T11:45:07.668Z,8.89
2023-05-19T11:47:46.516Z,9.25
2023-05-19T11:50:20.868Z,8.76
2023-05-19T11:52:48.136Z,8.25
2023-05-19T11:55:19.349Z,5.90
2023-05-19T11:58:12.172Z,5.14
2023-05-19T12:00:40.984Z,4.88
2023-05-19T12:03:08.525Z,5.04
2023-05-19T12:05:43.886Z,5.44
2023-05-19T12:08:11.644Z,6.40
2023-05-19T12:10:39.593Z,5.97
2023-05-19T12:13:06.668Z,5.29
2023-05-19T12:15:33.587Z,5.45
2023-05-19T12:18:01.752Z,5.89
2023-05-19T12:20:29.918Z,5.85
2023-05-19T12:22:57.092Z,4.98
2023-05-19T12:25:24.559Z,5.23
2023-05-19T12:27:51.191Z,5.31
2023-05-19T12:30:18.117Z,4.95
2023-05-19T12:32:46.295Z,4.97
2023-05-19T12:35:12.865Z,4.59
2023-05-19T12:37:41.927Z,4.37
2023-05-19T12:40:09.673Z,4.30
2023-05-19T12:42:36.266Z,4.56
2023-05-19T12:45:04.317Z,4.55
2023-05-19T12:47:35.841Z,4.10
2023-05-19T12:50:04.144Z,4.23
2023-05-19T12:52:33.522Z,3.82
2023-05-19T12:55:05.726Z,3.94
2023-05-19T12:57:36.598Z,4.27
2023-05-19T13:00:07.573Z,3.70
2023-05-19T13:02:35.936Z,4.00
2023-05-19T13:05:03.251Z,3.90
2023-05-19T13:07:29.933Z,3.75
2023-05-19T13:09:56.500Z,3.98
2023-05-19T13:12:23.118Z,4.01
2023-05-19T13:14:49.709Z,4.69
2023-05-19T13:17:16.256Z,3.72
2023-05-19T13:19:42.976Z,3.73
2023-05-19T13:22:09.515Z,3.74
2023-05-19T13:24:36.070Z,3.55
2023-05-19T13:27:02.646Z,3.72
2023-05-19T13:29:29.325Z,3.61
2023-05-19T13:31:55.873Z,3.86
2023-05-19T13:34:22.421Z,4.10
2023-05-19T13:36:49.065Z,3.92
2023-05-19T13:39:15.670Z,3.70
2023-05-19T13:41:42.171Z,3.97
2023-05-19T13:44:08.807Z,4.06
2023-05-19T13:46:44.747Z,4.07
2023-05-19T13:49:12.515Z,3.97
2023-05-19T13:51:42.367Z,3.70
2023-05-19T13:54:08.866Z,3.35
2023-05-19T13:56:35.885Z,3.55
2023-05-19T13:59:02.783Z,3.45
2023-05-19T14:01:29.707Z,3.49
2023-05-19T14:03:56.459Z,3.45
2023-05-19T14:06:23.109Z,3.39
2023-05-19T14:08:49.648Z,3.82
2023-05-19T14:11:20.284Z,3.90
2023-05-19T14:13:52.352Z,4.02
2023-05-19T14:16:19.497Z,3.78
2023-05-19T14:18:46.234Z,3.83
2023-05-19T14:21:12.908Z,3.66
2023-05-19T14:23:39.530Z,3.84
2023-05-19T14:26:06.349Z,3.82
2023-05-19T14:28:32.916Z,3.68
2023-05-19T14:30:59.525Z,3.40
2023-05-19T14:33:26.050Z,4.08
2023-05-19T14:35:53.019Z,4.42
2023-05-19T14:38:19.537Z,4.41
2023-05-19T14:40:46.198Z,4.35
2023-05-19T14:43:12.706Z,4.04
2023-05-19T14:45:39.426Z,4.41
2023-05-19T14:48:06.020Z,4.23
2023-05-19T14:50:32.943Z,3.85
2023-05-19T14:52:59.616Z,3.95
2023-05-19T14:55:26.178Z,4.10
2023-05-19T14:57:52.730Z,3.74
2023-05-19T15:00:19.495Z,3.75
2023-05-19T15:02:46.274Z,4.09
2023-05-19T15:05:12.837Z,4.13
2023-05-19T15:07:39.522Z,3.80
2023-05-19T15:10:07.590Z,3.62
2023-05-19T15:12:34.568Z,4.05
2023-05-19T15:15:01.144Z,3.98
2023-05-19T15:17:27.930Z,5.59
2023-05-19T15:19:54.627Z,3.89
2023-05-19T15:22:21.284Z,4.04
2023-05-19T15:24:48.044Z,4.18
2023-05-19T15:27:14.617Z,4.29
2023-05-19T15:29:41.279Z,4.59
2023-05-19T15:32:10.281Z,4.77
2023-05-19T15:34:36.828Z,4.86
2023-05-19T15:37:03.634Z,4.77
2023-05-19T15:39:30.689Z,4.92
2023-05-19T15:41:57.298Z,4.98
2023-05-19T15:44:23.852Z,5.07
2023-05-19T15:46:50.517Z,4.99
2023-05-19T15:49:17.201Z,5.03
2023-05-19T15:51:44.492Z,5.53
2023-05-19T15:54:11.265Z,5.53
2023-05-19T15:56:37.837Z,5.84
2023-05-19T15:59:04.332Z,6.12
2023-05-19T16:01:30.977Z,6.35
2023-05-19T16:03:57.679Z,6.23
2023-05-19T16:06:24.267Z,6.29
2023-05-19T16:08:50.796Z,6.11
2023-05-19T16:11:17.411Z,6.13
2023-05-19T16:13:43.948Z,6.29
2023-05-19T16:16:10.522Z,6.36
2023-05-19T16:18:37.153Z,7.02
2023-05-19T16:21:03.782Z,6.43
2023-05-19T16:23:31.457Z,7.03
2023-05-19T16:25:58.063Z,6.55
2023-05-19T16:28:25.124Z,7.13
2023-05-19T16:30:51.874Z,7.08
2023-05-19T16:33:19.075Z,7.18
2023-05-19T16:35:45.636Z,6.75
2023-05-19T16:38:12.238Z,6.57
2023-05-19T16:40:41.127Z,6.58
2023-05-19T16:43:07.665Z,6.46
2023-05-19T16:45:36.271Z,6.79
2023-05-19T16:48:02.949Z,7.15
2023-05-19T16:50:29.762Z,6.55
2023-05-19T16:52:56.371Z,6.75
2023-05-19T16:55:22.894Z,6.61
2023-05-19T16:57:49.491Z,6.73
2023-05-19T17:00:16.180Z,6.83
2023-05-19T17:02:42.946Z,7.40
2023-05-19T17:05:09.639Z,7.92
2023-05-19T17:07:36.274Z,7.08
2023-05-19T17:10:02.910Z,7.31
2023-05-19T17:12:29.471Z,7.73
2023-05-19T17:14:56.025Z,7.61
2023-05-19T17:17:22.724Z,6.77
2023-05-19T17:19:49.367Z,6.83
2023-05-19T17:22:15.914Z,6.67
2023-05-19T17:24:42.449Z,7.14
2023-05-19T17:27:08.992Z,6.64
2023-05-19T17:29:36.933Z,8.75
2023-05-19T17:32:03.780Z,8.05
2023-05-19T17:34:30.330Z,7.82
2023-05-19T17:36:56.833Z,6.68
2023-05-19T17:39:23.423Z,6.59
2023-05-19T17:41:49.966Z,7.05
2023-05-19T17:44:16.521Z,7.98
2023-05-19T17:46:43.058Z,7.12
2023-05-19T17:49:09.673Z,7.02
2023-05-19T17:51:36.669Z,7.47
2023-05-19T17:54:03.463Z,6.74
2023-05-19T17:56:33.715Z,7.31
2023-05-19T17:59:00.497Z,8.06
2023-05-19T18:01:27.282Z,7.52
2023-05-19T18:03:54.181Z,7.72
2023-05-19T18:06:21.085Z,7.11
2023-05-19T18:08:47.845Z,6.69
2023-05-19T18:11:14.545Z,6.93
2023-05-19T18:13:41.568Z,7.22
2023-05-19T18:16:08.931Z,7.35
2023-05-19T18:18:35.534Z,7.19
2023-05-19T18:21:02.071Z,7.37
2023-05-19T18:23:28.606Z,6.74
2023-05-19T18:25:55.137Z,7.28
2023-05-19T18:28:22.872Z,7.01
2023-05-19T18:31:04.392Z,6.88
2023-05-19T18:33:31.406Z,7.05
2023-05-19T18:35:59.269Z,7.31
2023-05-19T18:38:26.123Z,7.29
2023-05-19T18:40:52.991Z,7.20
2023-05-19T18:43:19.625Z,7.04
2023-05-19T18:45:49.164Z,7.23
2023-05-19T18:48:15.893Z,7.03
2023-05-19T18:50:42.605Z,7.04
2023-05-19T18:53:09.225Z,7.70
2023-05-19T18:55:38.280Z,7.52
2023-05-19T18:58:05.077Z,7.35
2023-05-19T19:00:31.811Z,8.08
2023-05-19T19:03:01.330Z,7.88
2023-05-19T19:05:28.821Z,7.58
2023-05-19T19:07:55.308Z,7.75
2023-05-19T19:10:21.903Z,7.47
2023-05-19T19:12:48.439Z,7.90
2023-05-19T19:15:14.997Z,7.77
2023-05-19T19:17:41.572Z,7.80
2023-05-19T19:20:08.903Z,7.84
2023-05-19T19:22:35.683Z,7.78
2023-05-19T19:25:02.201Z,7.46
2023-05-19T19:27:28.736Z,7.93
2023-05-19T19:29:55.277Z,7.54
2023-05-19T19:32:21.847Z,7.60
2023-05-19T19:34:48.418Z,7.85
2023-05-19T19:37:14.960Z,7.80
2023-05-19T19:39:41.503Z,8.45
2023-05-19T19:42:08.068Z,8.48
2023-05-19T19:44:34.713Z,8.76
2023-05-19T19:47:01.332Z,9.07
2023-05-19T19:49:27.906Z,8.96
2023-05-19T19:51:55.566Z,9.17
2023-05-19T19:54:22.134Z,9.23
2023-05-19T19:56:48.677Z,9.44
2023-05-19T19:59:15.169Z,9.33
2023-05-19T20:01:41.694Z,9.58
2023-05-19T20:04:08.430Z,9.96
2023-05-19T20:06:35.201Z,9.61
2023-05-19T20:09:01.767Z,9.43
2023-05-19T20:11:28.382Z,9.65
2023-05-19T20:13:54.939Z,9.78
2023-05-19T20:16:21.668Z,10.12
2023-05-19T20:18:48.326Z,9.79
2023-05-19T20:21:15.021Z,10.31
2023-05-19T20:23:41.677Z,9.75
2023-05-19T20:26:11.863Z,10.14
2023-05-19T20:28:39.467Z,10.04
2023-05-19T20:31:06.073Z,9.80
2023-05-19T20:33:32.754Z,10.16
2023-05-19T20:35:59.296Z,10.17
2023-05-19T20:38:26.150Z,10.15
2023-05-19T20:40:54.123Z,10.04
2023-05-19T20:43:20.691Z,10.03
2023-05-19T20:45:47.314Z,9.84
2023-05-19T20:48:13.887Z,9.84
2023-05-19T20:50:40.475Z,9.89
2023-05-19T20:53:07.079Z,10.45
2023-05-19T20:55:33.790Z,10.37
2023-05-19T20:58:00.552Z,10.44
2023-05-19T21:00:28.816Z,10.05
2023-05-19T21:02:57.056Z,10.47
2023-05-19T21:05:23.837Z,10.60
2023-05-19T21:07:50.391Z,10.89
2023-05-19T21:10:17.220Z,10.79
2023-05-19T21:12:43.827Z,10.92
2023-05-19T21:15:10.892Z,10.70
2023-05-19T21:17:37.570Z,11.23
2023-05-19T21:20:04.621Z,11.27
2023-05-19T21:22:31.835Z,11.24
2023-05-19T21:24:58.444Z,11.05
2023-05-19T21:27:25.137Z,11.18
2023-05-19T21:29:55.253Z,11.13
2023-05-19T21:32:22.236Z,11.74
2023-05-19T21:34:48.899Z,11.82
2023-05-19T21:37:15.472Z,11.76
2023-05-19T21:39:41.995Z,11.85
2023-05-19T21:42:08.529Z,11.70
2023-05-19T21:44:35.061Z,11.38
2023-05-19T21:47:01.609Z,11.92
2023-05-19T21:49:28.153Z,11.47
2023-05-19T21:51:54.703Z,11.85
2023-05-19T21:54:21.307Z,11.63
2023-05-19T21:56:47.792Z,11.73
2023-05-19T21:59:14.377Z,12.00
2023-05-19T22:01:40.991Z,11.56
2023-05-19T22:04:07.768Z,11.83
2023-05-19T22:06:34.542Z,11.90
2023-05-19T22:09:01.089Z,11.31
2023-05-19T22:11:27.810Z,11.76
2023-05-19T22:13:54.380Z,11.76
2023-05-19T22:16:20.986Z,11.90
2023-05-19T22:18:47.537Z,12.35
2023-05-19T22:21:14.105Z,12.19
2023-05-19T22:23:40.641Z,12.44
2023-05-19T22:26:07.190Z,12.36
2023-05-19T22:28:33.753Z,12.16
2023-05-19T22:31:00.281Z,12.76
2023-05-19T22:33:26.857Z,12.48
2023-05-19T22:35:53.696Z,12.41
2023-05-19T22:38:20.208Z,12.25
2023-05-19T22:40:46.845Z,11.82
2023-05-19T22:43:13.384Z,11.94
2023-05-19T22:45:39.984Z,12.53
2023-05-19T22:48:06.680Z,12.05
2023-05-19T22:50:33.428Z,12.06
2023-05-19T22:52:59.940Z,12.04
2023-05-19T22:55:26.499Z,12.33
2023-05-19T22:57:53.066Z,12.15
2023-05-19T23:00:19.833Z,12.19
2023-05-19T23:02:46.917Z,12.06
2023-05-19T23:05:13.501Z,12.05
2023-05-19T23:07:40.021Z,12.10
2023-05-19T23:10:06.859Z,12.29
2023-05-19T23:12:33.385Z,11.97
2023-05-19T23:14:59.894Z,12.06
2023-05-19T23:17:26.483Z,12.45
2023-05-19T23:19:53.100Z,13.04
2023-05-19T23:22:19.642Z,12.49
2023-05-19T23:24:46.324Z,12.65
2023-05-19T23:27:12.905Z,13.07
2023-05-19T23:29:39.432Z,12.87
2023-05-19T23:32:06.175Z,12.73
2023-05-19T23:34:32.741Z,12.56
2023-05-19T23:36:59.265Z,12.73
2023-05-19T23:39:25.852Z,13.13
2023-05-19T23:41:52.365Z,13.08
2023-05-19T23:44:18.906Z,12.79
2023-05-19T23:46:45.414Z,13.02
2023-05-19T23:49:11.935Z,13.01
2023-05-19T23:51:38.468Z,13.34
2023-05-19T23:54:05.071Z,12.86
2023-05-19T23:56:31.624Z,13.05
2023-05-19T23:58:58.181Z,13.81
